createdAt,value
2023-03-26T00:00:45.844Z,8.0617
2023-03-26T00:01:52.880Z,8.0921
2023-03-26T00:02:59.821Z,8.1483
2023-03-26T00:04:06.893Z,8.0917
2023-03-26T00:05:13.786Z,8.1726
2023-03-26T00:06:20.795Z,8.1466
2023-03-26T00:07:27.750Z,8.0369
2023-03-26T00:08:34.769Z,8.0106
2023-03-26T00:09:41.707Z,7.9845
2023-03-26T00:10:48.706Z,7.9597
2023-03-26T00:11:55.703Z,7.9978
2023-03-26T00:13:02.716Z,8.0198
2023-03-26T00:14:09.652Z,8.1073
2023-03-26T00:15:16.642Z,8.1745
2023-03-26T00:16:23.639Z,8.1499
2023-03-26T00:17:30.672Z,8.1571
2023-03-26T00:18:37.593Z,8.2275
2023-03-26T00:19:44.597Z,8.2193
2023-03-26T00:20:51.557Z,8.3095
2023-03-26T00:21:58.550Z,8.3948
2023-03-26T00:23:05.525Z,8.1960
2023-03-26T00:24:12.531Z,8.0907
2023-03-26T00:25:19.488Z,7.9509
2023-03-26T00:26:26.505Z,7.7444
2023-03-26T00:27:33.455Z,7.8441
2023-03-26T00:28:40.725Z,7.8828
2023-03-26T00:29:47.418Z,7.7629
2023-03-26T00:30:54.488Z,7.4632
2023-03-26T00:32:01.403Z,7.1041
2023-03-26T00:33:08.443Z,7.1090
2023-03-26T00:34:15.384Z,7.1924
2023-03-26T00:35:22.448Z,7.2898
2023-03-26T00:36:29.415Z,7.3661
2023-03-26T00:37:36.351Z,7.4520
2023-03-26T00:38:43.325Z,7.4905
2023-03-26T00:39:50.328Z,7.5286
2023-03-26T00:40:57.293Z,7.3333
2023-03-26T00:42:04.287Z,7.2252
2023-03-26T00:43:11.267Z,7.3118
2023-03-26T00:44:18.269Z,7.3259
2023-03-26T00:45:25.231Z,7.4216
2023-03-26T00:46:32.342Z,7.5435
2023-03-26T00:47:39.196Z,7.5796
2023-03-26T00:48:46.311Z,7.6499
2023-03-26T00:49:53.176Z,7.6366
2023-03-26T00:51:00.165Z,7.5920
2023-03-26T00:52:07.130Z,7.5166
2023-03-26T00:53:14.150Z,7.6000
2023-03-26T00:54:21.113Z,7.6189
2023-03-26T00:55:28.110Z,7.7085
2023-03-26T00:56:35.094Z,7.7730
2023-03-26T00:57:42.081Z,7.8390
2023-03-26T00:58:49.058Z,7.8777
2023-03-26T00:59:56.129Z,7.7718
2023-03-26T01:01:03.129Z,7.7470
2023-03-26T01:02:10.084Z,7.8710
2023-03-26T01:03:26.670Z,7.9475
2023-03-26T01:04:28.967Z,8.0466
2023-03-26T01:05:35.814Z,8.1178
2023-03-26T01:06:42.846Z,8.1167
2023-03-26T01:07:49.764Z,8.2000
2023-03-26T01:08:56.779Z,8.3334
2023-03-26T01:10:03.748Z,8.4808
2023-03-26T01:11:10.761Z,8.5397
2023-03-26T01:12:17.730Z,8.6481
2023-03-26T01:13:24.701Z,8.7421
2023-03-26T01:14:31.672Z,8.7372
2023-03-26T01:15:38.707Z,8.8005
2023-03-26T01:16:45.646Z,8.8764
2023-03-26T01:17:52.669Z,8.9014
2023-03-26T01:18:59.608Z,8.8085
2023-03-26T01:20:06.604Z,8.7785
2023-03-26T01:21:13.577Z,8.5292
2023-03-26T01:22:20.617Z,8.2420
2023-03-26T01:23:27.541Z,8.1571
2023-03-26T01:24:34.539Z,8.0787
2023-03-26T01:25:41.513Z,7.9418
2023-03-26T01:26:48.518Z,7.7003
2023-03-26T01:27:55.480Z,7.3488
2023-03-26T01:29:02.477Z,7.2967
2023-03-26T01:30:09.438Z,7.1681
2023-03-26T01:31:16.433Z,7.1250
2023-03-26T01:32:23.456Z,6.9757
2023-03-26T01:33:30.514Z,7.1182
2023-03-26T01:34:37.439Z,7.0539
2023-03-26T01:35:44.439Z,6.8401
2023-03-26T01:36:51.338Z,6.9339
2023-03-26T01:37:58.364Z,6.9795
2023-03-26T01:39:05.317Z,6.9261
2023-03-26T01:40:12.317Z,6.9665
2023-03-26T01:41:19.272Z,7.1775
2023-03-26T01:42:26.301Z,7.3614
2023-03-26T01:43:33.257Z,7.4111
2023-03-26T01:44:40.240Z,7.3234
2023-03-26T01:45:47.197Z,7.3240
2023-03-26T01:46:54.227Z,7.4491
2023-03-26T01:48:01.246Z,7.3928
2023-03-26T01:49:08.195Z,7.2145
2023-03-26T01:50:15.161Z,7.1952
2023-03-26T01:51:22.149Z,7.0567
2023-03-26T01:52:29.114Z,7.1634
2023-03-26T01:53:36.127Z,7.0058
2023-03-26T01:54:43.093Z,7.1931
2023-03-26T01:55:50.102Z,7.4033
2023-03-26T01:56:57.112Z,7.6061
2023-03-26T01:58:04.062Z,7.7938
2023-03-26T01:59:11.043Z,7.9521
2023-03-26T02:00:18.083Z,8.0694
2023-03-26T02:01:25.047Z,8.0740
2023-03-26T02:02:32.137Z,8.1159
2023-03-26T02:03:39.028Z,7.8882
2023-03-26T02:04:45.981Z,7.6168
2023-03-26T02:05:53.229Z,7.4712
2023-03-26T02:06:59.958Z,7.5792
2023-03-26T02:08:06.903Z,7.6065
2023-03-26T02:09:13.912Z,7.6169
2023-03-26T02:10:20.874Z,7.6389
2023-03-26T02:11:35.560Z,7.7194
2023-03-26T02:12:39.640Z,7.7673
2023-03-26T02:13:46.629Z,7.7716
2023-03-26T02:14:53.583Z,7.7526
2023-03-26T02:16:00.649Z,7.5870
2023-03-26T02:17:07.572Z,7.5532
2023-03-26T02:18:14.559Z,7.7293
2023-03-26T02:19:21.838Z,7.9160
2023-03-26T02:20:28.529Z,8.0785
2023-03-26T02:21:35.501Z,8.2061
2023-03-26T02:22:42.499Z,8.3087
2023-03-26T02:23:49.463Z,8.4022
2023-03-26T02:24:56.459Z,8.5094
2023-03-26T02:26:03.418Z,8.4882
2023-03-26T02:27:10.460Z,8.2952
2023-03-26T02:28:17.385Z,8.2885
2023-03-26T02:29:24.382Z,8.2904
2023-03-26T02:30:31.389Z,8.2574
2023-03-26T02:31:38.472Z,8.1344
2023-03-26T02:32:45.354Z,8.1192
2023-03-26T02:33:52.329Z,8.1968
2023-03-26T02:34:59.282Z,8.1691
2023-03-26T02:36:06.353Z,8.1735
2023-03-26T02:37:13.256Z,8.2565
2023-03-26T02:38:20.271Z,8.3536
2023-03-26T02:39:27.241Z,8.4896
2023-03-26T02:40:34.230Z,8.5617
2023-03-26T02:41:41.229Z,8.6515
2023-03-26T02:42:48.195Z,8.7251
2023-03-26T02:43:55.167Z,8.8390
2023-03-26T02:45:02.168Z,8.8783
2023-03-26T02:46:09.172Z,8.8688
2023-03-26T02:47:16.131Z,8.9372
2023-03-26T02:48:23.095Z,9.0252
2023-03-26T02:49:30.121Z,9.0660
2023-03-26T02:50:37.105Z,9.0442
2023-03-26T02:51:44.088Z,9.0612
2023-03-26T02:52:51.041Z,9.0875
2023-03-26T02:53:58.039Z,9.1093
2023-03-26T02:55:05.009Z,9.1264
2023-03-26T02:56:12.033Z,9.1198
2023-03-26T02:57:18.976Z,9.0480
2023-03-26T02:58:25.968Z,9.0343
2023-03-26T02:59:32.932Z,9.0482
2023-03-26T03:00:39.950Z,9.1165
2023-03-26T03:01:46.911Z,9.1858
2023-03-26T03:02:54.010Z,9.2237
2023-03-26T03:04:00.869Z,9.2310
2023-03-26T03:05:07.875Z,9.2024
2023-03-26T03:06:14.853Z,9.1695
2023-03-26T03:07:21.841Z,9.1280
2023-03-26T03:08:28.814Z,9.1772
2023-03-26T03:09:35.807Z,9.1932
2023-03-26T03:10:42.769Z,9.1499
2023-03-26T03:11:49.776Z,9.1503
2023-03-26T03:12:56.733Z,9.2367
2023-03-26T03:14:03.803Z,9.2851
2023-03-26T03:15:10.720Z,9.2630
2023-03-26T03:16:17.753Z,9.1779
2023-03-26T03:17:24.719Z,9.1674
2023-03-26T03:18:31.675Z,9.2090
2023-03-26T03:19:38.653Z,9.2420
2023-03-26T03:20:45.668Z,9.2931
2023-03-26T03:21:52.618Z,9.2479
2023-03-26T03:22:59.624Z,9.2073
2023-03-26T03:24:06.592Z,9.2321
2023-03-26T03:25:13.582Z,9.2287
2023-03-26T03:26:20.565Z,9.1928
2023-03-26T03:27:27.573Z,9.1860
2023-03-26T03:28:34.531Z,9.1747
2023-03-26T03:29:41.529Z,9.1720
2023-03-26T03:30:48.517Z,9.2159
2023-03-26T03:31:55.518Z,9.1978
2023-03-26T03:33:02.553Z,9.1459
2023-03-26T03:34:09.475Z,9.0652
2023-03-26T03:35:16.449Z,8.9254
2023-03-26T03:36:23.437Z,8.8394
2023-03-26T03:37:30.417Z,8.8529
2023-03-26T03:38:37.446Z,8.8539
2023-03-26T03:39:44.410Z,8.8377
2023-03-26T03:40:51.364Z,8.8176
2023-03-26T03:41:58.365Z,8.7785
2023-03-26T03:43:05.361Z,8.5437
2023-03-26T03:44:12.344Z,8.2374
2023-03-26T03:45:19.315Z,8.2744
2023-03-26T03:46:26.351Z,8.0831
2023-03-26T03:47:33.336Z,7.7877
2023-03-26T03:48:40.281Z,7.4537
2023-03-26T03:49:47.243Z,7.4262
2023-03-26T03:50:54.250Z,7.4945
2023-03-26T03:52:01.223Z,7.6347
2023-03-26T03:53:08.213Z,7.8228
2023-03-26T03:54:15.179Z,7.9805
2023-03-26T03:55:22.200Z,8.1407
2023-03-26T03:56:29.194Z,8.2483
2023-03-26T03:57:36.150Z,8.2822
2023-03-26T03:58:43.138Z,8.3797
2023-03-26T03:59:50.115Z,8.4432
2023-03-26T04:00:57.090Z,8.4962
2023-03-26T04:02:04.101Z,8.5085
2023-03-26T04:03:11.151Z,8.3908
2023-03-26T04:04:18.093Z,8.3046
2023-03-26T04:05:25.011Z,8.3681
2023-03-26T04:06:32.024Z,8.4465
2023-03-26T04:07:39.007Z,8.4941
2023-03-26T04:08:45.994Z,8.5262
2023-03-26T04:09:52.957Z,8.5407
2023-03-26T04:10:59.947Z,8.5964
2023-03-26T04:12:06.913Z,8.5674
2023-03-26T04:13:13.933Z,8.4623
2023-03-26T04:14:20.895Z,8.2943
2023-03-26T04:15:28.110Z,8.0555
2023-03-26T04:16:34.909Z,8.0713
2023-03-26T04:17:41.876Z,8.0604
2023-03-26T04:18:48.812Z,7.9244
2023-03-26T04:19:55.822Z,7.8002
2023-03-26T04:21:02.780Z,7.9326
2023-03-26T04:22:09.794Z,8.0871
2023-03-26T04:23:16.742Z,8.2445
2023-03-26T04:24:23.769Z,8.3433
2023-03-26T04:25:30.718Z,8.4161
2023-03-26T04:26:37.730Z,8.4915
2023-03-26T04:27:44.681Z,8.5655
2023-03-26T04:28:51.683Z,8.6219
2023-03-26T04:29:58.657Z,8.6918
2023-03-26T04:31:05.691Z,8.7322
2023-03-26T04:32:12.607Z,8.6206
2023-03-26T04:33:19.615Z,8.6219
2023-03-26T04:34:26.598Z,8.6725
2023-03-26T04:35:33.607Z,8.7494
2023-03-26T04:36:40.576Z,8.8432
2023-03-26T04:37:47.570Z,8.8833
2023-03-26T04:38:54.529Z,8.8903
2023-03-26T04:40:01.513Z,8.9389
2023-03-26T04:41:08.478Z,8.8844
2023-03-26T04:42:15.522Z,8.7124
2023-03-26T04:43:22.436Z,8.6532
2023-03-26T04:44:29.444Z,8.2578
2023-03-26T04:45:36.402Z,7.8910
2023-03-26T04:46:43.523Z,7.7606
2023-03-26T04:47:50.482Z,7.8660
2023-03-26T04:48:57.410Z,7.9406
2023-03-26T04:50:04.350Z,8.0369
2023-03-26T04:51:11.343Z,8.0362
2023-03-26T04:52:18.300Z,8.0986
2023-03-26T04:53:25.295Z,8.1958
2023-03-26T04:54:32.289Z,8.2992
2023-03-26T04:55:39.290Z,8.3019
2023-03-26T04:56:46.282Z,8.3093
2023-03-26T04:57:53.252Z,8.3545
2023-03-26T04:59:00.187Z,8.4430
2023-03-26T05:00:07.190Z,8.5044
2023-03-26T05:01:14.206Z,8.5365
2023-03-26T05:02:21.164Z,8.5371
2023-03-26T05:03:28.118Z,8.5716
2023-03-26T05:04:35.239Z,8.5796
2023-03-26T05:05:42.146Z,8.6542
2023-03-26T05:06:49.162Z,8.7305
2023-03-26T05:07:56.135Z,8.7621
2023-03-26T05:09:03.150Z,8.8491
2023-03-26T05:10:10.093Z,8.8920
2023-03-26T05:11:17.096Z,8.9172
2023-03-26T05:12:24.062Z,8.8867
2023-03-26T05:13:31.080Z,8.9336
2023-03-26T05:14:38.046Z,8.9691
2023-03-26T05:15:45.048Z,9.0404
2023-03-26T05:16:52.014Z,9.0814
2023-03-26T05:17:59.124Z,9.0141
2023-03-26T05:19:05.960Z,8.9290
2023-03-26T05:20:12.981Z,8.9712
2023-03-26T05:21:19.945Z,9.0192
2023-03-26T05:22:26.942Z,9.0606
2023-03-26T05:23:33.897Z,9.1045
2023-03-26T05:24:40.902Z,9.1608
2023-03-26T05:25:47.883Z,9.1137
2023-03-26T05:26:54.896Z,9.1453
2023-03-26T05:28:01.828Z,9.1701
2023-03-26T05:29:08.839Z,9.1407
2023-03-26T05:30:15.798Z,9.0725
2023-03-26T05:31:22.810Z,9.0360
2023-03-26T05:32:29.829Z,9.0553
2023-03-26T05:33:36.850Z,9.1261
2023-03-26T05:34:43.724Z,9.1779
2023-03-26T05:35:50.731Z,9.1888
2023-03-26T05:36:57.705Z,9.1987
2023-03-26T05:38:04.692Z,9.1982
2023-03-26T05:39:11.662Z,9.2153
2023-03-26T05:40:18.657Z,9.2361
2023-03-26T05:41:25.638Z,9.2519
2023-03-26T05:42:32.644Z,9.2197
2023-03-26T05:43:39.686Z,9.2594
2023-03-26T05:44:46.597Z,9.2386
2023-03-26T05:45:53.604Z,9.2060
2023-03-26T05:47:00.572Z,9.2111
2023-03-26T05:48:07.577Z,9.1470
2023-03-26T05:49:14.550Z,9.0833
2023-03-26T05:50:21.506Z,9.0553
2023-03-26T05:51:28.500Z,8.9719
2023-03-26T05:52:35.484Z,8.9868
2023-03-26T05:53:42.466Z,8.9740
2023-03-26T05:54:49.454Z,8.9651
2023-03-26T05:55:56.445Z,8.9380
2023-03-26T05:57:03.418Z,8.9262
2023-03-26T05:58:10.450Z,8.8377
2023-03-26T05:59:17.373Z,8.8085
2023-03-26T06:00:24.385Z,8.8255
2023-03-26T06:01:31.343Z,8.8672
2023-03-26T06:02:38.341Z,8.9094
2023-03-26T06:03:45.369Z,8.8716
2023-03-26T06:04:52.323Z,8.9374
2023-03-26T06:05:59.275Z,8.9620
2023-03-26T06:07:06.282Z,8.9107
2023-03-26T06:08:13.289Z,8.8720
2023-03-26T06:09:20.217Z,8.6925
2023-03-26T06:10:27.230Z,8.6191
2023-03-26T06:11:34.204Z,8.6002
2023-03-26T06:12:41.171Z,8.6374
2023-03-26T06:13:48.144Z,8.5615
2023-03-26T06:14:55.111Z,8.6435
2023-03-26T06:16:02.222Z,8.5466
2023-03-26T06:17:09.091Z,8.4585
2023-03-26T06:18:16.105Z,8.3303
2023-03-26T06:19:23.058Z,8.2746
2023-03-26T06:20:30.058Z,8.2637
2023-03-26T06:21:37.026Z,8.3467
2023-03-26T06:22:44.039Z,8.4446
2023-03-26T06:23:51.004Z,8.4034
2023-03-26T06:24:58.012Z,8.1968
2023-03-26T06:26:04.985Z,8.0959
2023-03-26T06:27:11.978Z,8.1567
2023-03-26T06:28:18.930Z,8.2706
2023-03-26T06:29:25.954Z,8.2634
2023-03-26T06:30:32.924Z,8.1205
2023-03-26T06:31:39.918Z,7.3703
2023-03-26T06:32:46.994Z,7.0409
2023-03-26T06:33:53.877Z,6.9724
2023-03-26T06:35:00.844Z,6.6562
2023-03-26T06:36:07.883Z,6.4376
2023-03-26T06:37:14.819Z,6.5215
2023-03-26T06:38:21.815Z,6.5740
2023-03-26T06:39:28.767Z,6.8105
2023-03-26T06:40:35.767Z,6.8370
2023-03-26T06:41:42.750Z,6.7777
2023-03-26T06:43:09.586Z,6.5660
2023-03-26T06:44:01.500Z,6.4729
2023-03-26T06:45:08.491Z,6.5330
2023-03-26T06:46:15.483Z,6.4496
2023-03-26T06:47:22.485Z,6.3606
2023-03-26T06:48:29.419Z,6.5059
2023-03-26T06:49:36.424Z,6.3207
2023-03-26T06:50:43.409Z,6.2925
2023-03-26T06:51:50.398Z,6.2410
2023-03-26T06:52:57.355Z,6.1986
2023-03-26T06:54:04.358Z,6.2778
2023-03-26T06:55:11.350Z,6.4164
2023-03-26T06:56:18.343Z,6.5202
2023-03-26T06:57:25.296Z,6.4033
2023-03-26T06:58:32.291Z,6.4061
2023-03-26T06:59:39.247Z,6.4615
2023-03-26T07:00:46.321Z,6.5574
2023-03-26T07:01:53.241Z,6.5349
2023-03-26T07:03:00.251Z,6.4575
2023-03-26T07:04:07.267Z,6.4395
2023-03-26T07:05:14.198Z,6.3985
2023-03-26T07:06:21.177Z,6.4384
2023-03-26T07:07:28.177Z,6.5137
2023-03-26T07:08:35.130Z,6.3600
2023-03-26T07:09:42.119Z,6.4910
2023-03-26T07:10:49.080Z,6.6022
2023-03-26T07:11:56.100Z,6.5830
2023-03-26T07:13:03.072Z,6.4527
2023-03-26T07:14:10.077Z,6.4407
2023-03-26T07:15:17.021Z,6.5168
2023-03-26T07:16:24.062Z,6.7012
2023-03-26T07:17:31.069Z,6.5513
2023-03-26T07:18:38.012Z,6.4407
2023-03-26T07:19:44.975Z,6.2309
2023-03-26T07:20:52.082Z,6.3510
2023-03-26T07:21:58.928Z,6.5320
2023-03-26T07:23:05.932Z,6.6827
2023-03-26T07:24:12.902Z,6.7106
2023-03-26T07:25:19.929Z,6.8036
2023-03-26T07:26:26.887Z,6.6407
2023-03-26T07:27:33.860Z,6.6095
2023-03-26T07:28:40.849Z,6.8618
2023-03-26T07:29:47.854Z,6.9953
2023-03-26T07:30:54.948Z,6.9013
2023-03-26T07:32:01.875Z,6.8513
2023-03-26T07:33:08.756Z,6.8267
2023-03-26T07:34:15.756Z,6.8956
2023-03-26T07:35:22.737Z,6.9375
2023-03-26T07:36:29.758Z,7.0590
2023-03-26T07:37:36.729Z,7.0117
2023-03-26T07:38:43.697Z,6.8261
2023-03-26T07:39:50.654Z,6.8059
2023-03-26T07:40:57.664Z,6.6436
2023-03-26T07:42:04.632Z,6.6280
2023-03-26T07:43:11.635Z,6.8698
2023-03-26T07:44:18.590Z,7.0480
2023-03-26T07:45:25.586Z,7.1060
2023-03-26T07:46:32.544Z,7.2141
2023-03-26T07:47:39.582Z,7.3036
2023-03-26T07:48:46.529Z,7.1054
2023-03-26T07:49:53.532Z,7.1123
2023-03-26T07:51:00.480Z,7.0690
2023-03-26T07:52:07.482Z,7.0251
2023-03-26T07:53:14.452Z,7.1432
2023-03-26T07:54:21.454Z,7.3568
2023-03-26T07:55:28.427Z,7.3959
2023-03-26T07:56:35.555Z,7.5620
2023-03-26T07:57:42.437Z,7.5719
2023-03-26T07:58:49.386Z,7.5599
2023-03-26T07:59:56.327Z,7.5185
2023-03-26T08:01:03.341Z,7.5225
2023-03-26T08:02:10.305Z,7.3007
2023-03-26T08:03:17.569Z,7.1731
2023-03-26T08:04:25.940Z,7.0190
2023-03-26T08:05:36.051Z,7.0436
2023-03-26T08:06:43.020Z,7.2494
2023-03-26T08:07:50.027Z,7.2141
2023-03-26T08:08:56.978Z,7.1042
2023-03-26T08:10:04.023Z,7.1781
2023-03-26T08:11:10.953Z,7.3900
2023-03-26T08:12:17.943Z,7.4764
2023-03-26T08:13:24.908Z,7.5044
2023-03-26T08:14:31.916Z,7.6026
2023-03-26T08:15:38.945Z,7.4720
2023-03-26T08:16:45.919Z,7.2450
2023-03-26T08:17:52.929Z,7.1193
2023-03-26T08:18:59.840Z,7.3142
2023-03-26T08:20:06.834Z,7.3623
2023-03-26T08:21:13.835Z,7.2820
2023-03-26T08:22:20.794Z,7.1851
2023-03-26T08:23:27.808Z,7.1630
2023-03-26T08:24:34.750Z,7.2145
2023-03-26T08:25:41.703Z,7.2410
2023-03-26T08:26:48.730Z,7.3816
2023-03-26T08:27:55.709Z,7.4743
2023-03-26T08:29:02.673Z,7.3886
2023-03-26T08:30:09.661Z,7.4621
2023-03-26T08:31:16.677Z,7.3957
2023-03-26T08:32:23.625Z,7.4939
2023-03-26T08:33:30.646Z,7.4184
2023-03-26T08:34:37.575Z,7.2496
2023-03-26T08:35:44.593Z,7.3924
2023-03-26T08:36:51.536Z,7.3926
2023-03-26T08:37:58.550Z,7.4306
2023-03-26T08:39:05.517Z,7.3156
2023-03-26T08:40:12.504Z,7.5357
2023-03-26T08:41:19.474Z,7.6583
2023-03-26T08:42:26.479Z,7.4892
2023-03-26T08:43:33.475Z,7.2910
2023-03-26T08:44:40.466Z,7.2666
2023-03-26T08:45:47.413Z,7.2864
2023-03-26T08:46:54.482Z,7.0699
2023-03-26T08:48:01.419Z,6.7645
2023-03-26T08:49:08.396Z,6.6182
2023-03-26T08:50:15.359Z,6.8017
2023-03-26T08:51:22.358Z,6.7493
2023-03-26T08:52:29.329Z,7.0417
2023-03-26T08:53:36.319Z,6.8443
2023-03-26T08:54:43.320Z,6.6987
2023-03-26T08:55:50.299Z,6.6486
2023-03-26T08:56:57.296Z,6.8448
2023-03-26T08:58:04.287Z,6.6579
2023-03-26T08:59:11.231Z,6.6734
2023-03-26T09:00:18.234Z,6.5482
2023-03-26T09:01:25.232Z,6.4616
2023-03-26T09:02:32.249Z,6.6137
2023-03-26T09:03:39.208Z,6.7962
2023-03-26T09:04:46.169Z,6.8590
2023-03-26T09:05:53.117Z,7.0098
2023-03-26T09:07:00.132Z,7.2805
2023-03-26T09:08:07.165Z,7.3543
2023-03-26T09:09:19.250Z,7.2946
2023-03-26T09:10:25.909Z,7.4372
2023-03-26T09:11:32.908Z,7.4151
2023-03-26T09:12:39.875Z,7.4438
2023-03-26T09:13:46.885Z,7.5605
2023-03-26T09:14:53.846Z,7.6450
2023-03-26T09:16:00.851Z,7.3844
2023-03-26T09:17:07.834Z,7.3699
2023-03-26T09:18:14.816Z,7.4996
2023-03-26T09:19:21.801Z,7.3711
2023-03-26T09:20:28.816Z,7.4218
2023-03-26T09:21:35.720Z,7.4239
2023-03-26T09:22:42.725Z,7.4327
2023-03-26T09:23:49.698Z,7.4554
2023-03-26T09:24:56.711Z,7.6452
2023-03-26T09:26:03.659Z,7.5767
2023-03-26T09:27:10.643Z,7.6761
2023-03-26T09:28:17.609Z,7.7594
2023-03-26T09:29:24.604Z,7.9072
2023-03-26T09:30:31.591Z,7.8592
2023-03-26T09:31:38.623Z,7.9393
2023-03-26T09:32:45.600Z,7.6663
2023-03-26T09:33:52.526Z,7.4329
2023-03-26T09:34:59.484Z,7.3125
2023-03-26T09:36:06.508Z,7.5517
2023-03-26T09:37:13.467Z,7.7724
2023-03-26T09:38:20.484Z,7.5736
2023-03-26T09:39:27.427Z,7.3524
2023-03-26T09:40:34.413Z,7.4512
2023-03-26T09:41:41.399Z,7.6560
2023-03-26T09:42:48.397Z,7.6742
2023-03-26T09:43:55.348Z,7.8058
2023-03-26T09:45:02.345Z,7.8920
2023-03-26T09:46:09.345Z,8.0198
2023-03-26T09:47:16.325Z,8.1714
2023-03-26T09:48:23.269Z,8.3536
2023-03-26T09:49:30.266Z,8.0884
2023-03-26T09:50:37.221Z,7.9376
2023-03-26T09:51:44.256Z,7.8403
2023-03-26T09:52:51.208Z,7.9019
2023-03-26T09:53:58.186Z,7.9603
2023-03-26T09:55:05.164Z,8.0654
2023-03-26T09:56:12.156Z,8.0551
2023-03-26T09:57:19.260Z,8.0486
2023-03-26T09:58:26.159Z,8.0904
2023-03-26T09:59:33.106Z,8.1705
2023-03-26T10:00:40.113Z,8.2798
2023-03-26T10:01:47.043Z,8.3517
2023-03-26T10:02:54.089Z,8.6248
2023-03-26T10:04:01.011Z,8.5027
2023-03-26T10:05:08.089Z,8.6137
2023-03-26T10:06:14.962Z,8.5744
2023-03-26T10:07:21.968Z,8.5729
2023-03-26T10:08:31.632Z,8.2696
2023-03-26T10:09:40.727Z,8.3136
2023-03-26T10:10:47.663Z,8.1787
2023-03-26T10:11:54.665Z,8.2279
2023-03-26T10:13:13.658Z,8.2473
2023-03-26T10:14:13.426Z,8.2157
2023-03-26T10:15:20.393Z,8.3316
2023-03-26T10:16:27.407Z,8.2965
2023-03-26T10:17:34.417Z,8.4249
2023-03-26T10:18:41.332Z,8.3295
2023-03-26T10:19:48.301Z,8.4472
2023-03-26T10:20:55.476Z,8.3778
2023-03-26T10:22:02.246Z,8.4535
2023-03-26T10:23:09.244Z,8.5146
2023-03-26T10:24:16.209Z,8.5201
2023-03-26T10:25:23.238Z,8.7539
2023-03-26T10:26:30.168Z,8.7976
2023-03-26T10:27:37.173Z,8.8236
2023-03-26T10:28:44.129Z,8.8625
2023-03-26T10:29:51.131Z,8.9512
2023-03-26T10:30:58.248Z,8.8411
2023-03-26T10:32:05.096Z,8.8016
2023-03-26T10:33:12.045Z,8.8169
2023-03-26T10:34:28.571Z,8.9924
2023-03-26T10:35:30.804Z,9.0451
2023-03-26T10:36:37.804Z,8.9813
2023-03-26T10:37:45.557Z,9.2664
2023-03-26T10:38:51.752Z,9.3265
2023-03-26T10:39:58.712Z,9.6630
2023-03-26T10:41:05.709Z,9.6767
2023-03-26T10:42:12.686Z,9.5148
2023-03-26T10:43:19.686Z,9.6054
2023-03-26T10:44:26.635Z,9.8879
2023-03-26T10:45:33.634Z,9.7860
2023-03-26T10:46:40.619Z,9.6847
2023-03-26T10:47:47.630Z,9.7946
2023-03-26T10:48:54.563Z,9.7677
2023-03-26T10:50:01.554Z,9.7044
2023-03-26T10:51:08.500Z,9.4904
2023-03-26T10:52:15.498Z,9.5072
2023-03-26T10:53:22.467Z,9.5958
2023-03-26T10:54:29.467Z,9.6735
2023-03-26T10:55:36.436Z,9.7194
2023-03-26T10:56:43.445Z,9.8697
2023-03-26T10:57:50.380Z,9.8860
2023-03-26T10:58:57.395Z,9.7975
2023-03-26T11:00:04.327Z,9.6981
2023-03-26T11:01:11.352Z,9.7824
2023-03-26T11:02:18.280Z,9.7238
2023-03-26T11:03:25.279Z,9.4917
2023-03-26T11:04:32.254Z,9.6378
2023-03-26T11:05:39.310Z,9.6847
2023-03-26T11:06:46.202Z,9.4732
2023-03-26T11:07:53.194Z,9.4103
2023-03-26T11:09:00.160Z,9.1507
2023-03-26T11:10:07.184Z,9.2642
2023-03-26T11:11:14.121Z,9.3515
2023-03-26T11:12:27.280Z,9.4393
2023-03-26T11:13:32.853Z,9.3203
2023-03-26T11:14:39.854Z,9.5527
2023-03-26T11:15:46.859Z,9.6126
2023-03-26T11:16:53.823Z,9.7730
2023-03-26T11:18:00.799Z,9.9377
2023-03-26T11:19:07.774Z,9.9275
2023-03-26T11:20:14.745Z,9.7624
2023-03-26T11:21:21.743Z,9.6828
2023-03-26T11:22:28.882Z,9.6975
2023-03-26T11:23:35.691Z,9.8356
2023-03-26T11:24:42.656Z,9.9430
2023-03-26T11:25:49.655Z,10.1662
2023-03-26T11:26:56.626Z,10.1530
2023-03-26T11:28:03.613Z,10.4208
2023-03-26T11:29:32.891Z,10.6237
2023-03-26T11:30:22.350Z,10.6469
2023-03-26T11:31:29.351Z,10.9560
2023-03-26T11:32:36.345Z,11.1469
2023-03-26T11:33:45.597Z,11.2305
2023-03-26T11:34:55.084Z,11.4710
2023-03-26T11:36:02.031Z,11.6306
2023-03-26T11:37:09.011Z,11.7132
2023-03-26T11:38:16.005Z,11.7874
2023-03-26T11:39:22.974Z,11.7083
2023-03-26T11:40:29.930Z,11.4071
2023-03-26T11:41:36.925Z,11.2812
2023-03-26T11:42:43.890Z,11.3766
2023-03-26T11:43:50.903Z,11.3192
2023-03-26T11:44:57.870Z,11.4569
2023-03-26T11:46:04.882Z,11.4849
2023-03-26T11:47:11.827Z,11.4082
2023-03-26T11:48:18.804Z,11.4317
2023-03-26T11:49:25.786Z,11.5198
2023-03-26T11:50:32.782Z,11.5473
2023-03-26T11:51:39.735Z,11.5826
2023-03-26T11:52:47.154Z,11.7081
2023-03-26T11:53:53.690Z,11.7701
2023-03-26T11:55:00.700Z,11.8866
2023-03-26T11:56:07.732Z,11.9818
2023-03-26T11:57:14.680Z,12.1134
2023-03-26T11:58:21.619Z,12.1466
2023-03-26T11:59:28.609Z,12.0737
2023-03-26T12:00:35.556Z,12.0785
2023-03-26T12:01:42.597Z,12.0960
2023-03-26T12:02:49.600Z,12.2240
2023-03-26T12:03:56.549Z,12.3251
2023-03-26T12:05:03.459Z,12.4508
2023-03-26T12:06:10.471Z,12.5044
2023-03-26T12:07:17.438Z,12.5021
2023-03-26T12:08:24.450Z,12.5193
2023-03-26T12:09:31.385Z,12.3112
2023-03-26T12:10:38.630Z,12.4174
2023-03-26T12:11:45.332Z,12.2862
2023-03-26T12:12:52.355Z,11.6442
2023-03-26T12:13:59.303Z,11.1715
2023-03-26T12:15:06.302Z,11.3184
2023-03-26T12:16:13.331Z,10.8446
2023-03-26T12:17:20.248Z,10.5242
2023-03-26T12:18:32.028Z,10.4727
2023-03-26T12:19:39.011Z,10.3760
2023-03-26T12:20:45.975Z,9.9972
2023-03-26T12:21:52.951Z,10.0582
2023-03-26T12:22:59.909Z,10.1879
2023-03-26T12:24:06.915Z,10.0445
2023-03-26T12:25:13.890Z,9.9977
2023-03-26T12:26:20.863Z,10.0654
2023-03-26T12:27:27.822Z,10.3847
2023-03-26T12:28:34.819Z,10.2041
2023-03-26T12:29:41.788Z,9.9989
2023-03-26T12:30:48.799Z,9.9781
2023-03-26T12:31:55.943Z,9.8860
2023-03-26T12:33:02.773Z,9.9586
2023-03-26T12:34:09.707Z,10.2131
2023-03-26T12:35:16.701Z,9.9491
2023-03-26T12:36:23.668Z,9.9018
2023-03-26T12:37:30.653Z,10.1709
2023-03-26T12:38:37.621Z,10.2871
2023-03-26T12:40:09.944Z,10.4502
2023-03-26T12:40:56.455Z,10.4990
2023-03-26T12:43:40.603Z,10.6510
2023-03-26T12:44:54.027Z,10.8707
2023-03-26T12:44:55.724Z,10.6966
2023-03-26T12:45:38.673Z,10.4426
2023-03-26T12:47:58.245Z,10.3506
2023-03-26T12:48:03.889Z,10.1592
2023-03-26T12:49:09.237Z,9.8921
2023-03-26T12:50:16.105Z,9.9420
2023-03-26T12:51:23.112Z,10.1892
2023-03-26T12:52:30.076Z,10.3527
2023-03-26T12:53:37.087Z,10.5120
2023-03-26T12:54:44.024Z,10.6405
2023-03-26T12:55:51.033Z,10.6466
2023-03-26T12:57:11.401Z,10.5190
2023-03-26T12:58:14.031Z,10.5093
2023-03-26T12:59:21.533Z,10.2500
2023-03-26T13:00:28.513Z,10.2859
2023-03-26T13:01:35.508Z,10.2661
2023-03-26T13:02:42.519Z,10.3479
2023-03-26T13:03:51.821Z,10.5551
2023-03-26T13:05:06.425Z,10.8656
2023-03-26T13:06:12.970Z,11.1000
2023-03-26T13:07:19.949Z,11.2574
2023-03-26T13:08:26.908Z,11.4224
2023-03-26T13:09:33.926Z,11.6591
2023-03-26T13:10:40.906Z,11.8679
2023-03-26T13:11:47.855Z,11.9290
2023-03-26T13:12:54.842Z,11.2833
2023-03-26T13:14:01.814Z,11.2110
2023-03-26T13:15:08.870Z,11.1774
2023-03-26T13:16:15.850Z,11.4208
2023-03-26T13:17:22.923Z,11.5200
2023-03-26T13:18:29.803Z,11.2801
2023-03-26T13:19:36.782Z,10.8686
2023-03-26T13:20:43.752Z,10.3344
2023-03-26T13:21:53.017Z,10.4816
2023-03-26T13:23:02.505Z,10.8563
2023-03-26T13:24:09.505Z,11.0252
2023-03-26T13:25:16.465Z,11.1038
2023-03-26T13:26:23.453Z,11.2593
2023-03-26T13:27:30.413Z,11.3777
2023-03-26T13:28:37.403Z,11.5370
2023-03-26T13:29:44.375Z,11.6310
2023-03-26T13:30:51.409Z,11.7258
2023-03-26T13:31:58.361Z,11.8313
2023-03-26T13:33:05.378Z,11.8769
2023-03-26T13:34:12.303Z,11.9188
2023-03-26T13:35:19.326Z,11.9440
2023-03-26T13:36:26.317Z,12.0211
2023-03-26T13:37:33.262Z,12.0911
2023-03-26T13:38:40.201Z,12.1384
2023-03-26T13:39:47.230Z,12.1987
2023-03-26T13:40:54.338Z,12.1626
2023-03-26T13:42:01.190Z,12.2349
2023-03-26T13:43:08.121Z,11.9782
2023-03-26T13:44:15.167Z,11.7180
2023-03-26T13:45:22.227Z,10.9055
2023-03-26T13:46:29.124Z,10.6760
2023-03-26T13:47:36.075Z,10.0504
2023-03-26T13:48:43.036Z,9.7280
2023-03-26T13:49:49.997Z,9.5314
2023-03-26T13:50:57.182Z,9.3126
2023-03-26T13:52:03.965Z,9.1940
2023-03-26T13:53:10.989Z,9.0576